sensor_id;sensor_type;location;lat;lon;timestamp;P1;durP1;ratioP1;P2;durP2;ratioP2
13975;SDS011;7062;49.792;9.946;2023-04-08T00:00:22;11.03;;;10.03;;
13975;SDS011;7062;49.792;9.946;2023-04-08T00:02:48;9.83;;;8.87;;
13975;SDS011;7062;49.792;9.946;2023-04-08T00:05:14;9.97;;;8.20;;
13975;SDS011;7062;49.792;9.946;2023-04-08T00:07:40;9.77;;;8.83;;
13975;SDS011;7062;49.792;9.946;2023-04-08T00:10:06;9.97;;;8.97;;
13975;SDS011;7062;49.792;9.946;2023-04-08T00:12:32;11.77;;;9.03;;
13975;SDS011;7062;49.792;9.946;2023-04-08T00:14:58;9.63;;;8.73;;
13975;SDS011;7062;49.792;9.946;2023-04-08T00:17:23;9.73;;;8.73;;
13975;SDS011;7062;49.792;9.946;2023-04-08T00:19:49;10.53;;;9.50;;
13975;SDS011;7062;49.792;9.946;2023-04-08T00:22:15;10.47;;;9.27;;
13975;SDS011;7062;49.792;9.946;2023-04-08T00:24:41;10.48;;;9.45;;
13975;SDS011;7062;49.792;9.946;2023-04-08T00:27:07;11.17;;;10.17;;
13975;SDS011;7062;49.792;9.946;2023-04-08T00:29:32;11.40;;;9.03;;
13975;SDS011;7062;49.792;9.946;2023-04-08T00:31:58;10.77;;;9.70;;
13975;SDS011;7062;49.792;9.946;2023-04-08T00:34:24;10.40;;;9.33;;
13975;SDS011;7062;49.792;9.946;2023-04-08T00:36:50;9.83;;;8.83;;
13975;SDS011;7062;49.792;9.946;2023-04-08T00:39:15;10.57;;;9.47;;
13975;SDS011;7062;49.792;9.946;2023-04-08T00:41:41;9.97;;;8.97;;
13975;SDS011;7062;49.792;9.946;2023-04-08T00:44:07;12.87;;;9.47;;
13975;SDS011;7062;49.792;9.946;2023-04-08T00:46:34;11.20;;;9.70;;
13975;SDS011;7062;49.792;9.946;2023-04-08T00:49:01;10.43;;;9.23;;
13975;SDS011;7062;49.792;9.946;2023-04-08T00:51:27;10.67;;;9.30;;
13975;SDS011;7062;49.792;9.946;2023-04-08T00:53:55;11.18;;;9.70;;
13975;SDS011;7062;49.792;9.946;2023-04-08T00:56:21;10.93;;;9.83;;
13975;SDS011;7062;49.792;9.946;2023-04-08T00:58:47;10.52;;;9.45;;
13975;SDS011;7062;49.792;9.946;2023-04-08T01:01:19;10.37;;;9.27;;
13975;SDS011;7062;49.792;9.946;2023-04-08T01:04:00;9.63;;;8.63;;
13975;SDS011;7062;49.792;9.946;2023-04-08T01:09:06;11.33;;;8.70;;
13975;SDS011;7062;49.792;9.946;2023-04-08T01:11:34;10.02;;;9.05;;
13975;SDS011;7062;49.792;9.946;2023-04-08T01:14:03;10.90;;;9.83;;
13975;SDS011;7062;49.792;9.946;2023-04-08T01:16:31;10.00;;;8.88;;
13975;SDS011;7062;49.792;9.946;2023-04-08T01:18:59;9.68;;;8.68;;
13975;SDS011;7062;49.792;9.946;2023-04-08T01:21:25;10.17;;;9.17;;
13975;SDS011;7062;49.792;9.946;2023-04-08T01:26:46;9.77;;;8.77;;
13975;SDS011;7062;49.792;9.946;2023-04-08T01:29:13;9.07;;;8.13;;
13975;SDS011;7062;49.792;9.946;2023-04-08T01:31:40;9.35;;;8.23;;
13975;SDS011;7062;49.792;9.946;2023-04-08T01:34:06;8.57;;;7.70;;
13975;SDS011;7062;49.792;9.946;2023-04-08T01:36:33;12.43;;;9.68;;
13975;SDS011;7062;49.792;9.946;2023-04-08T01:39:01;9.38;;;8.43;;
13975;SDS011;7062;49.792;9.946;2023-04-08T01:41:29;10.52;;;9.52;;
13975;SDS011;7062;49.792;9.946;2023-04-08T01:43:58;10.23;;;9.20;;
13975;SDS011;7062;49.792;9.946;2023-04-08T01:46:24;10.93;;;9.83;;
13975;SDS011;7062;49.792;9.946;2023-04-08T01:48:51;10.00;;;8.90;;
13975;SDS011;7062;49.792;9.946;2023-04-08T01:51:18;10.10;;;9.10;;
13975;SDS011;7062;49.792;9.946;2023-04-08T01:53:44;9.48;;;8.57;;
13975;SDS011;7062;49.792;9.946;2023-04-08T01:56:13;10.17;;;9.07;;
13975;SDS011;7062;49.792;9.946;2023-04-08T01:58:45;9.93;;;8.60;;
13975;SDS011;7062;49.792;9.946;2023-04-08T02:01:16;9.77;;;8.27;;
13975;SDS011;7062;49.792;9.946;2023-04-08T02:03:44;11.15;;;8.30;;
13975;SDS011;7062;49.792;9.946;2023-04-08T02:06:11;9.80;;;8.80;;
13975;SDS011;7062;49.792;9.946;2023-04-08T02:08:37;12.00;;;9.40;;
13975;SDS011;7062;49.792;9.946;2023-04-08T02:11:03;9.60;;;8.53;;
13975;SDS011;7062;49.792;9.946;2023-04-08T02:13:29;9.83;;;8.83;;
13975;SDS011;7062;49.792;9.946;2023-04-08T02:15:56;11.25;;;9.15;;
13975;SDS011;7062;49.792;9.946;2023-04-08T02:18:30;9.40;;;8.27;;
13975;SDS011;7062;49.792;9.946;2023-04-08T02:21:02;10.63;;;9.10;;
13975;SDS011;7062;49.792;9.946;2023-04-08T02:23:34;9.38;;;8.00;;
13975;SDS011;7062;49.792;9.946;2023-04-08T02:26:03;9.48;;;8.48;;
13975;SDS011;7062;49.792;9.946;2023-04-08T02:28:33;9.43;;;8.50;;
13975;SDS011;7062;49.792;9.946;2023-04-08T02:31:00;11.55;;;9.45;;
13975;SDS011;7062;49.792;9.946;2023-04-08T02:33:27;9.70;;;8.60;;
13975;SDS011;7062;49.792;9.946;2023-04-08T02:35:53;9.97;;;8.97;;
13975;SDS011;7062;49.792;9.946;2023-04-08T02:38:20;10.13;;;9.13;;
13975;SDS011;7062;49.792;9.946;2023-04-08T02:40:48;9.93;;;8.95;;
13975;SDS011;7062;49.792;9.946;2023-04-08T02:43:15;9.43;;;8.52;;
13975;SDS011;7062;49.792;9.946;2023-04-08T02:45:41;10.73;;;9.63;;
13975;SDS011;7062;49.792;9.946;2023-04-08T02:48:07;10.88;;;9.13;;
13975;SDS011;7062;49.792;9.946;2023-04-08T02:50:33;9.82;;;8.82;;
13975;SDS011;7062;49.792;9.946;2023-04-08T02:52:59;9.57;;;8.67;;
13975;SDS011;7062;49.792;9.946;2023-04-08T02:55:25;11.27;;;8.60;;
13975;SDS011;7062;49.792;9.946;2023-04-08T02:57:51;9.87;;;8.80;;
13975;SDS011;7062;49.792;9.946;2023-04-08T03:00:16;10.83;;;8.83;;
13975;SDS011;7062;49.792;9.946;2023-04-08T03:02:42;10.03;;;8.93;;
13975;SDS011;7062;49.792;9.946;2023-04-08T03:05:08;9.57;;;8.60;;
13975;SDS011;7062;49.792;9.946;2023-04-08T03:07:34;9.88;;;8.82;;
13975;SDS011;7062;49.792;9.946;2023-04-08T03:10:00;9.10;;;8.20;;
13975;SDS011;7062;49.792;9.946;2023-04-08T03:12:26;12.93;;;9.45;;
13975;SDS011;7062;49.792;9.946;2023-04-08T03:14:52;10.47;;;9.37;;
13975;SDS011;7062;49.792;9.946;2023-04-08T03:17:18;10.82;;;8.70;;
13975;SDS011;7062;49.792;9.946;2023-04-08T03:19:44;10.68;;;9.60;;
13975;SDS011;7062;49.792;9.946;2023-04-08T03:22:10;9.43;;;8.57;;
13975;SDS011;7062;49.792;9.946;2023-04-08T03:24:36;11.07;;;8.33;;
13975;SDS011;7062;49.792;9.946;2023-04-08T03:27:01;10.37;;;9.27;;
13975;SDS011;7062;49.792;9.946;2023-04-08T03:29:27;9.57;;;8.45;;
13975;SDS011;7062;49.792;9.946;2023-04-08T03:31:53;9.10;;;8.30;;
13975;SDS011;7062;49.792;9.946;2023-04-08T03:34:19;9.77;;;8.43;;
13975;SDS011;7062;49.792;9.946;2023-04-08T03:36:45;9.97;;;8.97;;
13975;SDS011;7062;49.792;9.946;2023-04-08T03:39:10;10.07;;;8.93;;
13975;SDS011;7062;49.792;9.946;2023-04-08T03:41:36;8.13;;;7.33;;
13975;SDS011;7062;49.792;9.946;2023-04-08T03:44:02;8.90;;;8.10;;
13975;SDS011;7062;49.792;9.946;2023-04-08T03:46:27;12.00;;;10.17;;
13975;SDS011;7062;49.792;9.946;2023-04-08T03:48:53;8.77;;;7.87;;
13975;SDS011;7062;49.792;9.946;2023-04-08T03:51:19;9.57;;;8.43;;
13975;SDS011;7062;49.792;9.946;2023-04-08T03:53:44;9.67;;;8.37;;
13975;SDS011;7062;49.792;9.946;2023-04-08T03:56:10;11.77;;;8.97;;
13975;SDS011;7062;49.792;9.946;2023-04-08T03:58:36;10.18;;;9.10;;
13975;SDS011;7062;49.792;9.946;2023-04-08T04:01:02;9.03;;;8.20;;
13975;SDS011;7062;49.792;9.946;2023-04-08T04:03:27;9.53;;;8.43;;
13975;SDS011;7062;49.792;9.946;2023-04-08T04:05:53;8.73;;;7.93;;
13975;SDS011;7062;49.792;9.946;2023-04-08T04:08:18;8.73;;;7.93;;
13975;SDS011;7062;49.792;9.946;2023-04-08T04:10:44;8.97;;;8.07;;
13975;SDS011;7062;49.792;9.946;2023-04-08T04:13:10;9.17;;;8.27;;
13975;SDS011;7062;49.792;9.946;2023-04-08T04:15:39;10.47;;;8.40;;
13975;SDS011;7062;49.792;9.946;2023-04-08T04:18:05;8.80;;;8.00;;
13975;SDS011;7062;49.792;9.946;2023-04-08T04:20:31;9.23;;;8.18;;
13975;SDS011;7062;49.792;9.946;2023-04-08T04:22:57;10.90;;;9.40;;
13975;SDS011;7062;49.792;9.946;2023-04-08T04:25:23;9.20;;;7.70;;
13975;SDS011;7062;49.792;9.946;2023-04-08T04:27:49;10.23;;;8.63;;
13975;SDS011;7062;49.792;9.946;2023-04-08T04:30:15;9.00;;;8.10;;
13975;SDS011;7062;49.792;9.946;2023-04-08T04:32:41;10.13;;;8.45;;
13975;SDS011;7062;49.792;9.946;2023-04-08T04:35:10;8.80;;;7.97;;
13975;SDS011;7062;49.792;9.946;2023-04-08T04:37:36;8.75;;;7.80;;
13975;SDS011;7062;49.792;9.946;2023-04-08T04:40:02;7.73;;;6.93;;
13975;SDS011;7062;49.792;9.946;2023-04-08T04:42:29;8.32;;;7.53;;
13975;SDS011;7062;49.792;9.946;2023-04-08T04:44:55;8.13;;;7.33;;
13975;SDS011;7062;49.792;9.946;2023-04-08T04:47:20;8.83;;;7.97;;
13975;SDS011;7062;49.792;9.946;2023-04-08T04:49:46;8.63;;;7.73;;
13975;SDS011;7062;49.792;9.946;2023-04-08T04:52:12;9.17;;;8.37;;
13975;SDS011;7062;49.792;9.946;2023-04-08T04:54:38;8.27;;;7.43;;
13975;SDS011;7062;49.792;9.946;2023-04-08T04:57:03;8.00;;;7.07;;
13975;SDS011;7062;49.792;9.946;2023-04-08T04:59:29;10.00;;;8.27;;
13975;SDS011;7062;49.792;9.946;2023-04-08T05:01:55;8.33;;;7.53;;
13975;SDS011;7062;49.792;9.946;2023-04-08T05:04:24;8.27;;;7.43;;
13975;SDS011;7062;49.792;9.946;2023-04-08T05:06:50;9.75;;;8.20;;
13975;SDS011;7062;49.792;9.946;2023-04-08T05:09:16;8.33;;;7.47;;
13975;SDS011;7062;49.792;9.946;2023-04-08T05:11:41;7.70;;;7.00;;
13975;SDS011;7062;49.792;9.946;2023-04-08T05:14:07;9.97;;;7.40;;
13975;SDS011;7062;49.792;9.946;2023-04-08T05:16:33;8.17;;;7.30;;
13975;SDS011;7062;49.792;9.946;2023-04-08T05:18:59;9.50;;;7.57;;
13975;SDS011;7062;49.792;9.946;2023-04-08T05:21:25;8.03;;;7.10;;
13975;SDS011;7062;49.792;9.946;2023-04-08T05:23:51;8.50;;;7.63;;
13975;SDS011;7062;49.792;9.946;2023-04-08T05:26:21;7.93;;;7.07;;
13975;SDS011;7062;49.792;9.946;2023-04-08T05:28:47;8.40;;;6.90;;
13975;SDS011;7062;49.792;9.946;2023-04-08T05:31:17;8.50;;;6.60;;
13975;SDS011;7062;49.792;9.946;2023-04-08T05:33:44;8.55;;;7.70;;
13975;SDS011;7062;49.792;9.946;2023-04-08T05:36:10;9.35;;;7.00;;
13975;SDS011;7062;49.792;9.946;2023-04-08T05:38:36;8.05;;;7.07;;
13975;SDS011;7062;49.792;9.946;2023-04-08T05:41:02;7.32;;;6.63;;
13975;SDS011;7062;49.792;9.946;2023-04-08T05:43:28;8.10;;;7.30;;
13975;SDS011;7062;49.792;9.946;2023-04-08T05:45:54;8.32;;;7.22;;
13975;SDS011;7062;49.792;9.946;2023-04-08T05:48:20;6.83;;;6.17;;
13975;SDS011;7062;49.792;9.946;2023-04-08T05:50:45;7.33;;;6.63;;
13975;SDS011;7062;49.792;9.946;2023-04-08T05:53:12;8.77;;;7.88;;
13975;SDS011;7062;49.792;9.946;2023-04-08T05:55:38;7.33;;;6.63;;
13975;SDS011;7062;49.792;9.946;2023-04-08T05:58:05;9.07;;;6.75;;
13975;SDS011;7062;49.792;9.946;2023-04-08T06:00:30;8.85;;;6.60;;
13975;SDS011;7062;49.792;9.946;2023-04-08T06:02:56;8.63;;;7.73;;
13975;SDS011;7062;49.792;9.946;2023-04-08T06:05:22;8.40;;;7.37;;
13975;SDS011;7062;49.792;9.946;2023-04-08T06:07:47;8.33;;;7.50;;
13975;SDS011;7062;49.792;9.946;2023-04-08T06:10:13;8.37;;;7.47;;
13975;SDS011;7062;49.792;9.946;2023-04-08T06:12:38;9.90;;;7.40;;
13975;SDS011;7062;49.792;9.946;2023-04-08T06:15:05;8.73;;;7.33;;
13975;SDS011;7062;49.792;9.946;2023-04-08T06:17:32;8.40;;;6.47;;
13975;SDS011;7062;49.792;9.946;2023-04-08T06:20:00;8.80;;;6.57;;
13975;SDS011;7062;49.792;9.946;2023-04-08T06:22:25;7.77;;;6.90;;
13975;SDS011;7062;49.792;9.946;2023-04-08T06:24:51;7.13;;;6.53;;
13975;SDS011;7062;49.792;9.946;2023-04-08T06:27:17;7.83;;;7.03;;
13975;SDS011;7062;49.792;9.946;2023-04-08T06:29:42;8.07;;;7.27;;
13975;SDS011;7062;49.792;9.946;2023-04-08T06:32:08;8.27;;;7.37;;
13975;SDS011;7062;49.792;9.946;2023-04-08T06:34:34;8.57;;;7.63;;
13975;SDS011;7062;49.792;9.946;2023-04-08T06:36:59;8.57;;;7.77;;
13975;SDS011;7062;49.792;9.946;2023-04-08T06:39:25;8.13;;;6.67;;
13975;SDS011;7062;49.792;9.946;2023-04-08T06:41:51;7.60;;;6.90;;
13975;SDS011;7062;49.792;9.946;2023-04-08T06:44:18;8.25;;;6.97;;
13975;SDS011;7062;49.792;9.946;2023-04-08T06:46:44;7.37;;;6.67;;
13975;SDS011;7062;49.792;9.946;2023-04-08T06:49:11;7.82;;;6.95;;
13975;SDS011;7062;49.792;9.946;2023-04-08T06:51:37;7.55;;;6.63;;
13975;SDS011;7062;49.792;9.946;2023-04-08T06:54:02;7.83;;;7.03;;
13975;SDS011;7062;49.792;9.946;2023-04-08T06:56:28;8.27;;;7.17;;
13975;SDS011;7062;49.792;9.946;2023-04-08T06:58:53;9.33;;;7.13;;
13975;SDS011;7062;49.792;9.946;2023-04-08T07:01:19;7.73;;;6.73;;
13975;SDS011;7062;49.792;9.946;2023-04-08T07:03:45;8.17;;;7.23;;
13975;SDS011;7062;49.792;9.946;2023-04-08T07:06:10;7.73;;;7.03;;
13975;SDS011;7062;49.792;9.946;2023-04-08T07:08:36;8.10;;;6.50;;
13975;SDS011;7062;49.792;9.946;2023-04-08T07:11:02;6.60;;;6.00;;
13975;SDS011;7062;49.792;9.946;2023-04-08T07:13:29;7.23;;;6.60;;
13975;SDS011;7062;49.792;9.946;2023-04-08T07:15:54;7.43;;;6.70;;
13975;SDS011;7062;49.792;9.946;2023-04-08T07:18:20;8.43;;;7.27;;
13975;SDS011;7062;49.792;9.946;2023-04-08T07:20:49;6.73;;;6.07;;
13975;SDS011;7062;49.792;9.946;2023-04-08T07:23:17;8.83;;;6.63;;
13975;SDS011;7062;49.792;9.946;2023-04-08T07:25:42;7.93;;;6.93;;
13975;SDS011;7062;49.792;9.946;2023-04-08T07:28:08;7.37;;;6.67;;
13975;SDS011;7062;49.792;9.946;2023-04-08T07:30:33;7.70;;;6.90;;
13975;SDS011;7062;49.792;9.946;2023-04-08T07:32:59;7.03;;;6.33;;
13975;SDS011;7062;49.792;9.946;2023-04-08T07:35:25;7.67;;;6.87;;
13975;SDS011;7062;49.792;9.946;2023-04-08T07:37:51;6.87;;;6.17;;
13975;SDS011;7062;49.792;9.946;2023-04-08T07:40:17;7.27;;;6.57;;
13975;SDS011;7062;49.792;9.946;2023-04-08T07:42:43;7.63;;;6.87;;
13975;SDS011;7062;49.792;9.946;2023-04-08T07:45:09;8.67;;;7.10;;
13975;SDS011;7062;49.792;9.946;2023-04-08T07:47:35;7.80;;;7.10;;
13975;SDS011;7062;49.792;9.946;2023-04-08T07:50:01;7.20;;;6.50;;
13975;SDS011;7062;49.792;9.946;2023-04-08T07:52:28;8.43;;;6.83;;
13975;SDS011;7062;49.792;9.946;2023-04-08T07:54:54;8.63;;;6.77;;
13975;SDS011;7062;49.792;9.946;2023-04-08T07:57:20;8.07;;;7.27;;
13975;SDS011;7062;49.792;9.946;2023-04-08T07:59:46;8.63;;;6.97;;
13975;SDS011;7062;49.792;9.946;2023-04-08T08:02:11;8.00;;;6.40;;
13975;SDS011;7062;49.792;9.946;2023-04-08T08:04:37;7.23;;;6.50;;
13975;SDS011;7062;49.792;9.946;2023-04-08T08:07:03;6.93;;;6.23;;
13975;SDS011;7062;49.792;9.946;2023-04-08T08:09:28;6.87;;;5.53;;
13975;SDS011;7062;49.792;9.946;2023-04-08T08:11:54;9.67;;;6.33;;
13975;SDS011;7062;49.792;9.946;2023-04-08T08:14:20;6.00;;;5.33;;
13975;SDS011;7062;49.792;9.946;2023-04-08T08:16:45;7.10;;;5.00;;
13975;SDS011;7062;49.792;9.946;2023-04-08T08:19:12;7.57;;;5.67;;
13975;SDS011;7062;49.792;9.946;2023-04-08T08:21:38;6.63;;;5.33;;
13975;SDS011;7062;49.792;9.946;2023-04-08T08:24:04;5.57;;;4.67;;
13975;SDS011;7062;49.792;9.946;2023-04-08T08:26:30;5.90;;;5.30;;
13975;SDS011;7062;49.792;9.946;2023-04-08T08:28:58;7.57;;;5.37;;
13975;SDS011;7062;49.792;9.946;2023-04-08T08:31:23;6.50;;;5.47;;
13975;SDS011;7062;49.792;9.946;2023-04-08T08:33:49;7.40;;;5.20;;
13975;SDS011;7062;49.792;9.946;2023-04-08T08:36:15;6.87;;;4.77;;
13975;SDS011;7062;49.792;9.946;2023-04-08T08:38:41;6.67;;;4.40;;
13975;SDS011;7062;49.792;9.946;2023-04-08T08:41:07;5.10;;;4.37;;
13975;SDS011;7062;49.792;9.946;2023-04-08T08:43:33;6.20;;;5.60;;
13975;SDS011;7062;49.792;9.946;2023-04-08T08:45:59;6.20;;;4.77;;
13975;SDS011;7062;49.792;9.946;2023-04-08T08:48:25;6.43;;;5.77;;
13975;SDS011;7062;49.792;9.946;2023-04-08T08:50:51;4.73;;;4.23;;
13975;SDS011;7062;49.792;9.946;2023-04-08T08:53:17;8.43;;;6.47;;
13975;SDS011;7062;49.792;9.946;2023-04-08T08:55:43;5.60;;;5.03;;
13975;SDS011;7062;49.792;9.946;2023-04-08T08:58:09;5.30;;;4.80;;
13975;SDS011;7062;49.792;9.946;2023-04-08T09:03:17;6.93;;;5.50;;
13975;SDS011;7062;49.792;9.946;2023-04-08T09:05:52;5.37;;;4.83;;
13975;SDS011;7062;49.792;9.946;2023-04-08T09:08:23;6.67;;;4.80;;
13975;SDS011;7062;49.792;9.946;2023-04-08T09:10:50;5.47;;;4.43;;
13975;SDS011;7062;49.792;9.946;2023-04-08T09:13:16;5.33;;;4.27;;
13975;SDS011;7062;49.792;9.946;2023-04-08T09:15:59;5.03;;;4.63;;
13975;SDS011;7062;49.792;9.946;2023-04-08T09:18:29;6.77;;;5.20;;
13975;SDS011;7062;49.792;9.946;2023-04-08T09:20:58;5.30;;;4.70;;
13975;SDS011;7062;49.792;9.946;2023-04-08T09:23:36;5.90;;;3.90;;
13975;SDS011;7062;49.792;9.946;2023-04-08T09:26:08;4.80;;;4.40;;
13975;SDS011;7062;49.792;9.946;2023-04-08T09:28:42;4.23;;;3.83;;
13975;SDS011;7062;49.792;9.946;2023-04-08T09:31:22;4.53;;;3.10;;
13975;SDS011;7062;49.792;9.946;2023-04-08T09:33:56;6.57;;;3.30;;
13975;SDS011;7062;49.792;9.946;2023-04-08T09:36:22;5.13;;;2.83;;
13975;SDS011;7062;49.792;9.946;2023-04-08T09:38:50;3.20;;;2.47;;
13975;SDS011;7062;49.792;9.946;2023-04-08T09:41:18;3.93;;;3.07;;
13975;SDS011;7062;49.792;9.946;2023-04-08T09:43:55;4.60;;;3.30;;
13975;SDS011;7062;49.792;9.946;2023-04-08T09:46:26;3.20;;;2.90;;
13975;SDS011;7062;49.792;9.946;2023-04-08T09:49:00;2.60;;;2.20;;
13975;SDS011;7062;49.792;9.946;2023-04-08T09:51:26;2.53;;;2.33;;
13975;SDS011;7062;49.792;9.946;2023-04-08T09:54:01;3.77;;;2.63;;
13975;SDS011;7062;49.792;9.946;2023-04-08T09:56:35;3.17;;;2.23;;
13975;SDS011;7062;49.792;9.946;2023-04-08T09:59:12;2.93;;;2.50;;
13975;SDS011;7062;49.792;9.946;2023-04-08T10:01:43;3.03;;;2.73;;
13975;SDS011;7062;49.792;9.946;2023-04-08T10:04:15;5.50;;;3.07;;
13975;SDS011;7062;49.792;9.946;2023-04-08T10:06:44;3.33;;;2.67;;
13975;SDS011;7062;49.792;9.946;2023-04-08T10:09:17;2.80;;;2.50;;
13975;SDS011;7062;49.792;9.946;2023-04-08T10:11:46;3.00;;;2.70;;
13975;SDS011;7062;49.792;9.946;2023-04-08T10:14:13;2.50;;;2.30;;
13975;SDS011;7062;49.792;9.946;2023-04-08T10:16:38;3.40;;;3.07;;
13975;SDS011;7062;49.792;9.946;2023-04-08T10:19:34;5.53;;;3.27;;
13975;SDS011;7062;49.792;9.946;2023-04-08T10:22:51;3.70;;;3.03;;
13975;SDS011;7062;49.792;9.946;2023-04-08T10:27:54;4.07;;;3.67;;
13975;SDS011;7062;49.792;9.946;2023-04-08T10:32:55;4.33;;;3.63;;
13975;SDS011;7062;49.792;9.946;2023-04-08T10:35:28;3.97;;;3.47;;
13975;SDS011;7062;49.792;9.946;2023-04-08T10:37:55;4.33;;;3.30;;
13975;SDS011;7062;49.792;9.946;2023-04-08T10:40:22;3.53;;;3.20;;
13975;SDS011;7062;49.792;9.946;2023-04-08T10:42:57;3.90;;;3.50;;
13975;SDS011;7062;49.792;9.946;2023-04-08T10:45:24;3.80;;;3.37;;
13975;SDS011;7062;49.792;9.946;2023-04-08T10:47:50;5.03;;;3.40;;
13975;SDS011;7062;49.792;9.946;2023-04-08T10:50:17;4.53;;;3.20;;
13975;SDS011;7062;49.792;9.946;2023-04-08T10:55:12;4.97;;;3.30;;
13975;SDS011;7062;49.792;9.946;2023-04-08T10:57:38;5.70;;;3.30;;
13975;SDS011;7062;49.792;9.946;2023-04-08T11:00:09;3.67;;;3.37;;
13975;SDS011;7062;49.792;9.946;2023-04-08T11:02:38;3.60;;;3.30;;
13975;SDS011;7062;49.792;9.946;2023-04-08T11:05:04;3.27;;;2.93;;
13975;SDS011;7062;49.792;9.946;2023-04-08T11:07:31;3.77;;;3.40;;
13975;SDS011;7062;49.792;9.946;2023-04-08T11:09:56;4.30;;;3.90;;
13975;SDS011;7062;49.792;9.946;2023-04-08T11:12:26;4.40;;;3.90;;
13975;SDS011;7062;49.792;9.946;2023-04-08T11:14:52;5.83;;;4.83;;
13975;SDS011;7062;49.792;9.946;2023-04-08T11:17:18;4.43;;;3.40;;
13975;SDS011;7062;49.792;9.946;2023-04-08T11:19:45;3.67;;;3.27;;
13975;SDS011;7062;49.792;9.946;2023-04-08T11:22:11;4.00;;;3.50;;
13975;SDS011;7062;49.792;9.946;2023-04-08T11:24:37;3.27;;;2.97;;
13975;SDS011;7062;49.792;9.946;2023-04-08T11:27:03;3.97;;;3.57;;
13975;SDS011;7062;49.792;9.946;2023-04-08T11:29:30;4.50;;;4.10;;
13975;SDS011;7062;49.792;9.946;2023-04-08T11:31:57;3.53;;;3.20;;
13975;SDS011;7062;49.792;9.946;2023-04-08T11:34:23;4.63;;;4.23;;
13975;SDS011;7062;49.792;9.946;2023-04-08T11:36:49;3.27;;;2.90;;
13975;SDS011;7062;49.792;9.946;2023-04-08T11:39:15;4.27;;;3.43;;
13975;SDS011;7062;49.792;9.946;2023-04-08T11:41:41;3.00;;;2.70;;
13975;SDS011;7062;49.792;9.946;2023-04-08T11:44:07;3.37;;;2.83;;
13975;SDS011;7062;49.792;9.946;2023-04-08T11:46:33;4.23;;;3.50;;
13975;SDS011;7062;49.792;9.946;2023-04-08T11:49:05;3.40;;;3.10;;
13975;SDS011;7062;49.792;9.946;2023-04-08T11:51:33;4.17;;;3.13;;
13975;SDS011;7062;49.792;9.946;2023-04-08T11:54:00;3.97;;;3.57;;
13975;SDS011;7062;49.792;9.946;2023-04-08T11:56:30;4.10;;;3.03;;
13975;SDS011;7062;49.792;9.946;2023-04-08T11:58:57;3.47;;;2.90;;
13975;SDS011;7062;49.792;9.946;2023-04-08T12:01:23;3.93;;;3.00;;
13975;SDS011;7062;49.792;9.946;2023-04-08T12:03:52;3.77;;;3.30;;
13975;SDS011;7062;49.792;9.946;2023-04-08T12:06:25;4.23;;;3.43;;
13975;SDS011;7062;49.792;9.946;2023-04-08T12:08:51;4.60;;;3.00;;
13975;SDS011;7062;49.792;9.946;2023-04-08T12:11:18;2.53;;;2.30;;
13975;SDS011;7062;49.792;9.946;2023-04-08T12:13:43;3.60;;;3.30;;
13975;SDS011;7062;49.792;9.946;2023-04-08T12:16:09;2.83;;;2.50;;
13975;SDS011;7062;49.792;9.946;2023-04-08T12:18:35;3.10;;;2.70;;
13975;SDS011;7062;49.792;9.946;2023-04-08T12:21:01;3.67;;;2.60;;
13975;SDS011;7062;49.792;9.946;2023-04-08T12:23:27;5.00;;;3.07;;
13975;SDS011;7062;49.792;9.946;2023-04-08T12:25:52;3.17;;;2.87;;
13975;SDS011;7062;49.792;9.946;2023-04-08T12:28:18;3.30;;;2.43;;
13975;SDS011;7062;49.792;9.946;2023-04-08T12:30:43;3.90;;;3.40;;
13975;SDS011;7062;49.792;9.946;2023-04-08T12:33:10;3.60;;;3.30;;
13975;SDS011;7062;49.792;9.946;2023-04-08T12:35:36;4.67;;;3.63;;
13975;SDS011;7062;49.792;9.946;2023-04-08T12:38:01;3.27;;;2.97;;
13975;SDS011;7062;49.792;9.946;2023-04-08T12:40:27;5.50;;;3.80;;
13975;SDS011;7062;49.792;9.946;2023-04-08T12:42:53;4.83;;;3.97;;
13975;SDS011;7062;49.792;9.946;2023-04-08T12:45:18;4.53;;;3.07;;
13975;SDS011;7062;49.792;9.946;2023-04-08T12:47:44;3.67;;;3.37;;
13975;SDS011;7062;49.792;9.946;2023-04-08T12:50:11;2.80;;;2.60;;
13975;SDS011;7062;49.792;9.946;2023-04-08T12:52:36;3.70;;;3.40;;
13975;SDS011;7062;49.792;9.946;2023-04-08T12:55:02;3.73;;;3.30;;
13975;SDS011;7062;49.792;9.946;2023-04-08T12:57:28;3.60;;;3.30;;
13975;SDS011;7062;49.792;9.946;2023-04-08T12:59:55;4.00;;;3.50;;
13975;SDS011;7062;49.792;9.946;2023-04-08T13:02:21;5.33;;;3.00;;
13975;SDS011;7062;49.792;9.946;2023-04-08T13:04:49;3.63;;;3.07;;
13975;SDS011;7062;49.792;9.946;2023-04-08T13:07:17;4.00;;;3.70;;
13975;SDS011;7062;49.792;9.946;2023-04-08T13:09:43;5.53;;;4.43;;
13975;SDS011;7062;49.792;9.946;2023-04-08T13:12:08;4.30;;;3.43;;
13975;SDS011;7062;49.792;9.946;2023-04-08T13:14:36;3.70;;;2.73;;
13975;SDS011;7062;49.792;9.946;2023-04-08T13:17:02;3.40;;;2.83;;
13975;SDS011;7062;49.792;9.946;2023-04-08T13:19:28;3.50;;;3.20;;
13975;SDS011;7062;49.792;9.946;2023-04-08T13:21:53;3.53;;;3.13;;
13975;SDS011;7062;49.792;9.946;2023-04-08T13:24:19;4.60;;;3.30;;
13975;SDS011;7062;49.792;9.946;2023-04-08T13:26:44;4.00;;;3.30;;
13975;SDS011;7062;49.792;9.946;2023-04-08T13:29:10;3.50;;;2.70;;
13975;SDS011;7062;49.792;9.946;2023-04-08T13:31:36;3.60;;;2.40;;
13975;SDS011;7062;49.792;9.946;2023-04-08T13:34:01;3.13;;;2.83;;
13975;SDS011;7062;49.792;9.946;2023-04-08T13:36:27;3.53;;;2.40;;
13975;SDS011;7062;49.792;9.946;2023-04-08T13:38:53;2.30;;;2.10;;
13975;SDS011;7062;49.792;9.946;2023-04-08T13:41:19;2.70;;;2.50;;
13975;SDS011;7062;49.792;9.946;2023-04-08T13:43:49;3.63;;;2.50;;
13975;SDS011;7062;49.792;9.946;2023-04-08T13:46:14;3.00;;;2.70;;
13975;SDS011;7062;49.792;9.946;2023-04-08T13:48:40;2.53;;;2.33;;
13975;SDS011;7062;49.792;9.946;2023-04-08T13:51:06;2.83;;;2.43;;
13975;SDS011;7062;49.792;9.946;2023-04-08T13:53:32;3.20;;;2.77;;
13975;SDS011;7062;49.792;9.946;2023-04-08T13:55:57;3.33;;;2.63;;
13975;SDS011;7062;49.792;9.946;2023-04-08T13:58:23;2.33;;;2.10;;
13975;SDS011;7062;49.792;9.946;2023-04-08T14:00:50;2.60;;;2.13;;
13975;SDS011;7062;49.792;9.946;2023-04-08T14:03:16;2.90;;;2.50;;
13975;SDS011;7062;49.792;9.946;2023-04-08T14:05:42;3.00;;;2.70;;
13975;SDS011;7062;49.792;9.946;2023-04-08T14:08:07;5.17;;;3.43;;
13975;SDS011;7062;49.792;9.946;2023-04-08T14:10:33;2.93;;;2.63;;
13975;SDS011;7062;49.792;9.946;2023-04-08T14:12:59;2.87;;;2.57;;
13975;SDS011;7062;49.792;9.946;2023-04-08T14:15:25;3.93;;;2.60;;
13975;SDS011;7062;49.792;9.946;2023-04-08T14:17:51;3.10;;;2.77;;
13975;SDS011;7062;49.792;9.946;2023-04-08T14:20:17;5.03;;;2.27;;
13975;SDS011;7062;49.792;9.946;2023-04-08T14:22:43;3.00;;;2.60;;
13975;SDS011;7062;49.792;9.946;2023-04-08T14:25:08;3.10;;;2.73;;
13975;SDS011;7062;49.792;9.946;2023-04-08T14:27:34;4.43;;;2.57;;
13975;SDS011;7062;49.792;9.946;2023-04-08T14:30:00;3.27;;;2.30;;
13975;SDS011;7062;49.792;9.946;2023-04-08T14:32:25;3.27;;;2.80;;
13975;SDS011;7062;49.792;9.946;2023-04-08T14:34:51;4.37;;;3.70;;
13975;SDS011;7062;49.792;9.946;2023-04-08T14:37:16;5.70;;;4.83;;
13975;SDS011;7062;49.792;9.946;2023-04-08T14:39:42;4.03;;;3.57;;
13975;SDS011;7062;49.792;9.946;2023-04-08T14:42:08;3.90;;;3.47;;
13975;SDS011;7062;49.792;9.946;2023-04-08T14:44:34;3.53;;;2.83;;
13975;SDS011;7062;49.792;9.946;2023-04-08T14:47:00;2.73;;;2.53;;
13975;SDS011;7062;49.792;9.946;2023-04-08T14:49:26;4.43;;;3.47;;
13975;SDS011;7062;49.792;9.946;2023-04-08T14:51:51;5.57;;;3.67;;
13975;SDS011;7062;49.792;9.946;2023-04-08T14:54:17;4.07;;;3.50;;
13975;SDS011;7062;49.792;9.946;2023-04-08T14:56:43;3.80;;;3.40;;
13975;SDS011;7062;49.792;9.946;2023-04-08T14:59:09;3.60;;;3.30;;
13975;SDS011;7062;49.792;9.946;2023-04-08T15:01:34;3.77;;;3.03;;
13975;SDS011;7062;49.792;9.946;2023-04-08T15:04:00;3.60;;;3.23;;
13975;SDS011;7062;49.792;9.946;2023-04-08T15:06:26;3.40;;;3.10;;
13975;SDS011;7062;49.792;9.946;2023-04-08T15:08:52;3.00;;;2.80;;
13975;SDS011;7062;49.792;9.946;2023-04-08T15:11:18;4.50;;;3.80;;
13975;SDS011;7062;49.792;9.946;2023-04-08T15:13:44;4.10;;;3.70;;